createdAt,value
2022-08-07T00:00:36.658Z,59.87
2022-08-07T00:03:07.211Z,59.83
2022-08-07T00:05:36.166Z,60.36
2022-08-07T00:08:04.986Z,60.16
2022-08-07T00:10:34.617Z,60.21
2022-08-07T00:13:17.471Z,60.12
2022-08-07T00:15:51.584Z,60.17
2022-08-07T00:18:24.642Z,59.91
2022-08-07T00:20:55.243Z,60.00
2022-08-07T00:23:23.440Z,60.21
2022-08-07T00:25:58.166Z,60.19
2022-08-07T00:28:33.723Z,60.31
2022-08-07T00:31:12.354Z,60.05
2022-08-07T00:33:42.988Z,60.40
2022-08-07T00:36:14.168Z,60.15
2022-08-07T00:38:40.873Z,59.74
2022-08-07T00:41:09.920Z,59.79
2022-08-07T00:43:59.829Z,60.11
2022-08-07T00:46:27.771Z,59.95
2022-08-07T00:48:54.315Z,59.90
2022-08-07T00:51:21.232Z,60.14
2022-08-07T00:53:55.339Z,60.10
2022-08-07T00:56:23.394Z,59.74
2022-08-07T00:58:57.579Z,60.08
2022-08-07T01:01:24.530Z,60.32
2022-08-07T01:03:57.201Z,60.06
2022-08-07T01:06:28.979Z,60.27
2022-08-07T01:08:59.364Z,59.95
2022-08-07T01:12:09.585Z,60.68
2022-08-07T01:14:16.822Z,60.49
2022-08-07T01:16:47.250Z,60.44
2022-08-07T01:19:19.212Z,60.42
2022-08-07T01:21:49.202Z,60.34
2022-08-07T01:24:21.223Z,60.82
2022-08-07T01:26:51.967Z,60.72
2022-08-07T01:29:20.564Z,61.50
2022-08-07T01:31:49.596Z,60.65
2022-08-07T01:34:18.732Z,61.32
2022-08-07T01:36:52.598Z,60.82
2022-08-07T01:39:41.445Z,60.70
2022-08-07T01:42:38.473Z,60.79
2022-08-07T01:45:10.100Z,60.98
2022-08-07T01:48:29.335Z,60.67
2022-08-07T01:50:32.167Z,60.73
2022-08-07T01:53:01.758Z,60.35
2022-08-07T01:55:39.998Z,60.49
2022-08-07T01:58:27.359Z,60.53
2022-08-07T02:01:09.828Z,60.56
2022-08-07T02:03:51.976Z,60.38
2022-08-07T02:06:31.706Z,60.61
2022-08-07T02:09:03.633Z,60.66
2022-08-07T02:12:03.236Z,60.29
2022-08-07T02:14:40.908Z,60.57
2022-08-07T02:17:10.884Z,60.67
2022-08-07T02:20:04.550Z,60.69
2022-08-07T02:22:28.578Z,60.79
2022-08-07T02:24:57.947Z,60.79
2022-08-07T02:27:26.370Z,61.01
2022-08-07T02:30:04.042Z,61.00
2022-08-07T02:32:38.683Z,61.14
2022-08-07T02:35:10.836Z,61.06
2022-08-07T02:37:44.154Z,61.00
2022-08-07T02:40:34.916Z,61.11
2022-08-07T02:42:59.181Z,61.41
2022-08-07T02:45:58.292Z,61.24
2022-08-07T02:48:15.702Z,61.34
2022-08-07T02:50:44.933Z,61.31
2022-08-07T02:53:18.031Z,61.41
2022-08-07T02:56:04.287Z,61.87
2022-08-07T02:58:34.011Z,61.26
2022-08-07T03:01:03.110Z,61.01
2022-08-07T03:03:42.101Z,60.67
2022-08-07T03:06:25.994Z,60.83
2022-08-07T03:09:01.852Z,61.04
2022-08-07T03:11:29.467Z,61.26
2022-08-07T03:14:01.767Z,61.45
2022-08-07T03:16:32.447Z,61.42
2022-08-07T03:19:00.098Z,61.41
2022-08-07T03:21:28.316Z,62.02
2022-08-07T03:24:20.820Z,62.28
2022-08-07T03:26:58.479Z,62.14
2022-08-07T03:29:33.915Z,62.02
2022-08-07T03:32:07.086Z,62.11
2022-08-07T03:34:47.163Z,62.39
2022-08-07T03:37:32.614Z,61.52
2022-08-07T03:40:15.615Z,61.60
2022-08-07T03:42:43.822Z,62.60
2022-08-07T03:45:11.552Z,62.20
2022-08-07T03:47:47.749Z,62.20
2022-08-07T03:50:23.154Z,62.46
2022-08-07T03:52:52.289Z,63.27
2022-08-07T03:55:19.080Z,62.36
2022-08-07T03:58:34.144Z,62.39
2022-08-07T04:00:36.830Z,63.69
2022-08-07T04:03:04.818Z,62.55
2022-08-07T04:05:39.389Z,62.24
2022-08-07T04:08:15.911Z,62.95
2022-08-07T04:10:53.893Z,62.74
2022-08-07T04:14:11.008Z,59.92
2022-08-07T04:16:31.325Z,61.27
2022-08-07T04:19:12.623Z,59.45
2022-08-07T04:21:58.841Z,60.11
2022-08-07T04:24:33.781Z,59.31
2022-08-07T04:27:03.026Z,59.82
2022-08-07T04:29:58.205Z,58.41
2022-08-07T04:32:18.206Z,58.68
2022-08-07T04:34:56.180Z,58.67
2022-08-07T04:37:22.854Z,58.78
2022-08-07T04:39:50.743Z,58.61
2022-08-07T04:42:17.432Z,57.07
2022-08-07T04:45:02.598Z,58.07
2022-08-07T04:48:00.915Z,58.57
2022-08-07T04:50:28.312Z,59.46
2022-08-07T04:53:07.138Z,59.08
2022-08-07T04:58:09.898Z,57.90
2022-08-07T04:59:17.095Z,57.71
2022-08-07T05:02:05.768Z,57.11
2022-08-07T05:04:53.718Z,56.80
2022-08-07T05:07:30.417Z,57.00
2022-08-07T05:10:28.428Z,56.76
2022-08-07T05:14:44.943Z,56.84
2022-08-07T05:15:53.550Z,57.49
2022-08-07T05:18:25.635Z,57.35
2022-08-07T05:20:56.580Z,57.90
2022-08-07T05:23:44.667Z,56.78
2022-08-07T05:26:23.932Z,57.94
2022-08-07T05:28:53.682Z,56.76
2022-08-07T05:31:35.319Z,56.92
2022-08-07T05:34:10.786Z,56.62
2022-08-07T05:36:40.699Z,57.09
2022-08-07T05:40:05.321Z,57.01
2022-08-07T05:42:02.584Z,55.63
2022-08-07T05:44:33.671Z,56.24
2022-08-07T05:47:01.704Z,56.95
2022-08-07T05:49:48.026Z,55.97
2022-08-07T05:52:14.580Z,56.41
2022-08-07T05:54:55.578Z,55.29
2022-08-07T05:57:26.755Z,56.46
2022-08-07T06:00:01.185Z,56.08
2022-08-07T06:02:33.084Z,55.17
2022-08-07T06:05:05.947Z,55.73
2022-08-07T06:08:13.437Z,55.31
2022-08-07T06:10:21.721Z,54.99
2022-08-07T06:12:49.645Z,55.12
2022-08-07T06:15:20.010Z,55.30
2022-08-07T06:17:53.935Z,55.30
2022-08-07T06:20:31.825Z,54.59
2022-08-07T06:23:46.869Z,54.66
2022-08-07T06:25:59.724Z,54.29
2022-08-07T06:28:27.905Z,53.96
2022-08-07T06:30:55.676Z,54.27
2022-08-07T06:33:22.916Z,54.25
2022-08-07T06:36:06.505Z,54.40
2022-08-07T06:38:36.732Z,54.46
2022-08-07T06:41:12.895Z,54.10
2022-08-07T06:43:46.156Z,54.07
2022-08-07T06:46:15.334Z,53.56
2022-08-07T06:48:58.278Z,53.49
2022-08-07T06:51:33.180Z,53.16
2022-08-07T06:55:31.345Z,53.84
2022-08-07T06:56:54.491Z,53.38
2022-08-07T07:00:12.289Z,52.99
2022-08-07T07:02:48.656Z,52.65
2022-08-07T07:05:08.914Z,52.51
2022-08-07T07:08:00.170Z,52.12
2022-08-07T07:10:33.495Z,51.64
2022-08-07T07:13:13.171Z,51.82
2022-08-07T07:15:51.772Z,51.25
2022-08-07T07:19:00.254Z,52.09
2022-08-07T07:22:05.027Z,52.04
2022-08-07T07:24:29.343Z,51.83
2022-08-07T07:27:00.949Z,52.10
2022-08-07T07:29:56.491Z,51.26
2022-08-07T07:32:23.105Z,51.43
2022-08-07T07:34:55.827Z,51.30
2022-08-07T07:37:49.414Z,51.49
2022-08-07T07:40:19.674Z,50.86
2022-08-07T07:42:53.965Z,50.98
2022-08-07T07:45:24.603Z,50.66
2022-08-07T07:48:12.923Z,50.64
2022-08-07T07:51:02.018Z,51.16
2022-08-07T07:53:30.462Z,50.34
2022-08-07T07:56:02.004Z,49.93
2022-08-07T07:58:40.183Z,50.12
2022-08-07T08:02:03.206Z,50.75
2022-08-07T08:04:09.324Z,49.91
2022-08-07T08:06:39.572Z,49.13
2022-08-07T08:09:08.578Z,48.73
2022-08-07T08:11:59.492Z,48.93
2022-08-07T08:14:26.649Z,49.20
2022-08-07T08:16:56.324Z,49.03
2022-08-07T08:20:19.531Z,47.81
2022-08-07T08:22:54.342Z,47.81
2022-08-07T08:25:43.048Z,47.89
2022-08-07T08:28:24.156Z,45.24
2022-08-07T08:31:15.901Z,46.50
2022-08-07T08:33:49.036Z,46.96
2022-08-07T08:36:18.148Z,47.77
2022-08-07T08:38:55.978Z,46.77
2022-08-07T08:41:31.489Z,46.46
2022-08-07T08:44:40.895Z,45.99
2022-08-07T08:47:13.783Z,46.36
2022-08-07T08:50:06.133Z,44.54
2022-08-07T08:52:51.548Z,47.28
2022-08-07T08:55:55.238Z,45.08
2022-08-07T08:58:50.602Z,45.61
2022-08-07T09:01:29.758Z,46.84
2022-08-07T09:04:28.822Z,46.24
2022-08-07T09:07:29.331Z,45.37
2022-08-07T09:10:36.135Z,45.54
2022-08-07T09:13:14.679Z,44.45
2022-08-07T09:16:23.931Z,45.01
2022-08-07T09:19:51.134Z,45.08
2022-08-07T09:24:33.365Z,44.98
2022-08-07T09:25:35.547Z,43.73
2022-08-07T09:30:03.263Z,45.95
2022-08-07T09:31:22.699Z,44.28
2022-08-07T09:33:58.939Z,44.51
2022-08-07T09:36:37.315Z,42.71
2022-08-07T09:39:53.205Z,42.03
2022-08-07T09:42:23.072Z,42.45
2022-08-07T09:47:23.773Z,43.34
2022-08-07T09:48:11.704Z,41.29
2022-08-07T09:52:15.955Z,41.04
2022-08-07T09:54:08.238Z,42.54
2022-08-07T09:56:42.791Z,40.71
2022-08-07T10:00:01.423Z,41.48
2022-08-07T10:02:40.400Z,41.33
2022-08-07T10:05:59.749Z,40.44
2022-08-07T10:09:07.213Z,40.32
2022-08-07T10:12:00.032Z,39.22
2022-08-07T10:14:33.546Z,39.92
2022-08-07T10:17:14.151Z,39.64
2022-08-07T10:19:58.108Z,39.80
2022-08-07T10:22:59.290Z,39.12
2022-08-07T10:25:42.216Z,39.62
2022-08-07T10:28:18.748Z,39.22
2022-08-07T10:31:06.087Z,36.32
2022-08-07T10:34:06.676Z,35.69
2022-08-07T10:36:58.453Z,36.72
2022-08-07T10:40:02.735Z,38.07
2022-08-07T10:42:47.286Z,38.58
2022-08-07T10:45:57.838Z,37.13
2022-08-07T10:48:41.067Z,35.32
2022-08-07T10:52:02.292Z,36.61
2022-08-07T10:54:35.460Z,36.15
2022-08-07T10:57:01.968Z,34.95
2022-08-07T10:59:52.218Z,35.79
2022-08-07T11:02:53.649Z,36.87
2022-08-07T11:05:49.159Z,34.63
2022-08-07T11:08:18.408Z,35.92
2022-08-07T11:11:02.962Z,36.94
2022-08-07T11:14:43.940Z,34.18
2022-08-07T11:16:38.955Z,34.47
2022-08-07T11:19:14.103Z,35.03
2022-08-07T11:22:32.238Z,35.20
2022-08-07T11:25:25.674Z,35.31
2022-08-07T11:28:16.577Z,36.02
2022-08-07T11:31:08.584Z,33.54
2022-08-07T11:34:04.193Z,33.68
2022-08-07T11:36:37.584Z,34.29
2022-08-07T11:39:19.853Z,34.31
2022-08-07T11:42:18.559Z,36.15
2022-08-07T11:44:52.799Z,35.53
2022-08-07T11:48:18.089Z,35.56
2022-08-07T11:51:40.874Z,36.15
2022-08-07T11:54:33.297Z,36.08
2022-08-07T11:57:57.729Z,37.52
2022-08-07T12:01:00.188Z,31.32
2022-08-07T12:04:17.352Z,31.16
2022-08-07T12:06:57.213Z,31.69
2022-08-07T12:09:42.546Z,32.13
2022-08-07T12:12:28.784Z,31.21
2022-08-07T12:15:03.192Z,31.27
2022-08-07T12:17:59.217Z,31.75
2022-08-07T12:20:38.061Z,33.43
2022-08-07T12:23:37.120Z,32.43
2022-08-07T12:26:30.053Z,33.28
2022-08-07T12:29:07.541Z,33.35
2022-08-07T12:32:04.951Z,31.97
2022-08-07T12:34:38.805Z,32.70
2022-08-07T12:37:16.851Z,33.05
2022-08-07T12:39:51.777Z,32.08
2022-08-07T12:42:28.026Z,31.20
2022-08-07T12:44:58.609Z,28.02
2022-08-07T12:47:40.635Z,30.95
2022-08-07T12:50:33.835Z,29.84
2022-08-07T12:53:17.697Z,31.69
2022-08-07T12:56:03.935Z,31.29
2022-08-07T12:58:39.631Z,30.48
2022-08-07T13:01:09.023Z,27.23
2022-08-07T13:03:54.904Z,28.35
2022-08-07T13:06:54.205Z,27.90
2022-08-07T13:10:37.493Z,28.75
2022-08-07T13:12:51.901Z,30.04
2022-08-07T13:15:35.896Z,31.32
2022-08-07T13:18:28.284Z,28.29
2022-08-07T13:21:37.356Z,29.03
2022-08-07T13:24:18.495Z,29.30
2022-08-07T13:27:22.446Z,28.24
2022-08-07T13:29:56.869Z,26.69
2022-08-07T13:32:45.615Z,26.09
2022-08-07T13:36:00.467Z,28.14
2022-08-07T13:38:41.927Z,26.81
2022-08-07T13:41:31.137Z,27.40
2022-08-07T13:44:01.797Z,28.93
2022-08-07T13:46:37.645Z,29.11
2022-08-07T13:50:34.652Z,27.94
2022-08-07T13:52:04.851Z,27.39
2022-08-07T13:54:49.604Z,26.33
2022-08-07T13:57:38.191Z,27.42
2022-08-07T14:00:06.760Z,26.88
2022-08-07T14:02:49.500Z,25.70
2022-08-07T14:05:23.525Z,24.44
2022-08-07T14:08:00.990Z,23.96
2022-08-07T14:10:41.976Z,23.61
2022-08-07T14:13:16.075Z,24.28
2022-08-07T14:15:50.680Z,25.27
2022-08-07T14:18:40.242Z,24.35
2022-08-07T14:22:00.469Z,24.82
2022-08-07T14:24:08.963Z,23.09
2022-08-07T14:26:51.306Z,22.90
2022-08-07T14:30:06.548Z,22.97
2022-08-07T14:32:12.637Z,22.18
2022-08-07T14:34:46.434Z,21.73
2022-08-07T14:37:17.352Z,22.14
2022-08-07T14:43:55.924Z,21.25
2022-08-07T14:45:25.530Z,21.72
2022-08-07T14:48:19.868Z,20.90
2022-08-07T14:51:00.103Z,20.06
2022-08-07T14:54:03.574Z,19.59
2022-08-07T14:56:29.815Z,18.93
2022-08-07T14:59:02.101Z,18.53
2022-08-07T15:01:42.641Z,18.58
2022-08-07T15:04:11.653Z,19.04
2022-08-07T15:06:40.681Z,18.72
2022-08-07T15:12:10.418Z,17.59
2022-08-07T15:15:09.187Z,18.06
2022-08-07T15:17:56.148Z,17.43
2022-08-07T15:20:32.406Z,17.56
2022-08-07T15:23:20.208Z,17.46
2022-08-07T15:25:54.161Z,17.68
2022-08-07T15:34:02.728Z,17.25
2022-08-07T15:37:02.792Z,16.97
2022-08-07T15:39:22.415Z,17.07
2022-08-07T15:42:45.116Z,16.78
2022-08-07T15:44:52.296Z,16.55
2022-08-07T15:47:21.843Z,16.33
2022-08-07T15:51:01.208Z,16.54
2022-08-07T15:53:05.452Z,18.02
2022-08-07T15:55:53.826Z,17.28
2022-08-07T15:58:23.663Z,17.18
2022-08-07T16:01:00.033Z,17.76
2022-08-07T16:03:47.453Z,17.53
2022-08-07T16:06:38.358Z,17.82
2022-08-07T16:09:41.173Z,17.59
2022-08-07T16:12:37.834Z,20.11
2022-08-07T16:15:55.751Z,20.32
2022-08-07T16:18:49.465Z,20.38
2022-08-07T16:22:03.552Z,21.10
2022-08-07T16:24:52.633Z,21.38
2022-08-07T16:27:40.311Z,21.09
2022-08-07T16:30:30.836Z,20.95
2022-08-07T16:34:01.404Z,22.06
2022-08-07T16:36:20.885Z,22.57
2022-08-07T16:39:33.482Z,22.59
2022-08-07T16:42:30.676Z,24.33
2022-08-07T16:46:40.968Z,24.22
2022-08-07T16:49:10.427Z,25.90
2022-08-07T16:52:49.288Z,26.86
2022-08-07T16:55:08.456Z,27.85
2022-08-07T16:58:03.994Z,28.39
2022-08-07T17:00:40.815Z,26.87
2022-08-07T17:03:17.537Z,27.92
2022-08-07T17:06:30.137Z,28.67
2022-08-07T17:10:05.165Z,29.62
2022-08-07T17:12:34.476Z,30.53
2022-08-07T17:15:15.764Z,30.02
2022-08-07T17:17:48.389Z,28.86
2022-08-07T17:20:41.864Z,29.63
2022-08-07T17:23:32.350Z,29.61
2022-08-07T17:26:24.344Z,29.53
2022-08-07T17:28:57.899Z,30.20
2022-08-07T17:31:44.384Z,30.23
2022-08-07T17:35:40.033Z,30.79
2022-08-07T17:38:05.005Z,30.59
2022-08-07T17:40:34.277Z,30.08
2022-08-07T17:43:18.020Z,30.41
2022-08-07T17:45:54.838Z,30.52
2022-08-07T17:48:30.620Z,30.51
2022-08-07T17:51:21.606Z,30.81
2022-08-07T17:54:29.787Z,30.99
2022-08-07T17:57:18.702Z,32.54
2022-08-07T17:59:52.294Z,32.11
2022-08-07T18:02:32.661Z,32.07
2022-08-07T18:05:21.968Z,32.05
2022-08-07T18:08:10.027Z,32.69
2022-08-07T18:12:06.990Z,32.25
2022-08-07T18:13:49.591Z,32.50
2022-08-07T18:16:31.194Z,32.53
2022-08-07T18:21:10.406Z,33.94
2022-08-07T18:22:26.424Z,33.88
2022-08-07T18:25:24.163Z,34.14
2022-08-07T18:28:34.341Z,33.30
2022-08-07T18:31:18.646Z,33.74
2022-08-07T18:34:03.900Z,34.05
2022-08-07T18:36:43.599Z,34.05
2022-08-07T18:40:05.152Z,33.82
2022-08-07T18:42:54.899Z,34.18
2022-08-07T18:45:44.209Z,34.69
2022-08-07T18:50:19.055Z,35.13
2022-08-07T18:52:51.758Z,35.10
2022-08-07T18:55:43.365Z,35.65
2022-08-07T18:58:37.111Z,34.43
2022-08-07T19:02:17.300Z,33.33
2022-08-07T19:04:32.135Z,32.73
2022-08-07T19:07:16.395Z,32.77
2022-08-07T19:10:14.835Z,32.95
2022-08-07T19:12:59.431Z,33.22
2022-08-07T19:16:05.959Z,32.61
2022-08-07T19:18:55.028Z,33.07
2022-08-07T19:21:47.980Z,33.00
2022-08-07T19:24:30.516Z,33.06
2022-08-07T19:28:57.982Z,33.41
2022-08-07T19:30:57.666Z,33.42
2022-08-07T19:32:46.228Z,33.43
2022-08-07T19:35:25.330Z,33.91
2022-08-07T19:37:59.875Z,33.66
2022-08-07T19:40:34.578Z,33.80
2022-08-07T19:43:10.807Z,33.55
2022-08-07T19:46:07.889Z,34.19
2022-08-07T19:48:42.751Z,34.28
2022-08-07T19:51:19.444Z,34.20
2022-08-07T19:54:30.988Z,34.38
2022-08-07T19:58:00.368Z,35.14
2022-08-07T19:59:41.553Z,35.37
2022-08-07T20:02:29.230Z,35.51
2022-08-07T20:04:58.020Z,35.39
2022-08-07T20:07:47.794Z,35.12
2022-08-07T20:10:36.939Z,35.56
2022-08-07T20:13:22.484Z,35.83
2022-08-07T20:15:50.025Z,36.57
2022-08-07T20:18:20.181Z,36.16
2022-08-07T20:20:59.972Z,36.92
2022-08-07T20:23:41.559Z,36.29
2022-08-07T20:26:11.050Z,36.20
2022-08-07T20:28:39.953Z,35.83
2022-08-07T20:31:21.452Z,35.96
2022-08-07T20:33:56.707Z,36.18
2022-08-07T20:36:27.236Z,36.42
2022-08-07T20:39:00.241Z,35.71
2022-08-07T20:41:38.436Z,36.00
2022-08-07T20:44:12.516Z,36.09
2022-08-07T20:46:44.639Z,36.53
2022-08-07T20:49:58.480Z,36.17
2022-08-07T20:52:07.836Z,36.70
2022-08-07T20:54:41.631Z,36.89
2022-08-07T20:57:12.833Z,36.90
2022-08-07T21:00:06.432Z,36.86
2022-08-07T21:02:54.372Z,36.96
2022-08-07T21:05:42.651Z,36.96
2022-08-07T21:08:16.518Z,38.14
2022-08-07T21:10:49.450Z,37.78
2022-08-07T21:13:24.532Z,37.78
2022-08-07T21:16:09.200Z,38.24
2022-08-07T21:18:41.134Z,39.01
2022-08-07T21:21:09.085Z,38.87
2022-08-07T21:23:58.637Z,38.29
2022-08-07T21:26:45.374Z,38.51
2022-08-07T21:29:21.327Z,39.01
2022-08-07T21:32:48.778Z,38.88
2022-08-07T21:35:34.639Z,39.68
2022-08-07T21:38:13.277Z,39.60
2022-08-07T21:41:10.916Z,39.86
2022-08-07T21:44:14.683Z,40.21
2022-08-07T21:47:12.128Z,40.29
2022-08-07T21:50:01.416Z,40.00
2022-08-07T21:52:44.456Z,39.82
2022-08-07T21:55:27.987Z,39.84
2022-08-07T21:58:30.023Z,39.92
2022-08-07T22:02:06.153Z,40.07
2022-08-07T22:04:51.376Z,40.35
2022-08-07T22:07:48.625Z,39.99
2022-08-07T22:10:17.638Z,40.13
2022-08-07T22:12:45.232Z,41.67
2022-08-07T22:16:39.209Z,41.55
2022-08-07T22:18:07.248Z,41.11
2022-08-07T22:20:44.336Z,41.20
2022-08-07T22:23:13.762Z,40.85
2022-08-07T22:25:51.982Z,41.29
2022-08-07T22:28:37.427Z,41.78
2022-08-07T22:31:55.968Z,42.42
2022-08-07T22:34:08.327Z,42.59
2022-08-07T22:36:47.618Z,42.39
2022-08-07T22:39:52.700Z,42.40
2022-08-07T22:42:25.621Z,42.72
2022-08-07T22:44:59.103Z,42.47
2022-08-07T22:47:44.909Z,43.10
2022-08-07T22:50:29.093Z,43.91
2022-08-07T22:53:26.816Z,45.32
2022-08-07T22:56:09.176Z,43.22
2022-08-07T22:58:49.422Z,43.63
2022-08-07T23:01:50.828Z,45.00
2022-08-07T23:04:30.154Z,44.21
2022-08-07T23:07:41.742Z,43.70
2022-08-07T23:10:37.600Z,44.47
2022-08-07T23:13:49.091Z,44.53
2022-08-07T23:16:54.629Z,45.90
2022-08-07T23:19:51.695Z,45.77
2022-08-07T23:22:49.345Z,46.89
2022-08-07T23:25:57.829Z,46.79
2022-08-07T23:28:56.535Z,46.22
2022-08-07T23:32:48.851Z,46.57
2022-08-07T23:35:05.295Z,46.31
2022-08-07T23:38:01.633Z,47.08
2022-08-07T23:40:34.175Z,46.95
2022-08-07T23:43:37.717Z,48.07
2022-08-07T23:46:27.265Z,47.95
2022-08-07T23:49:15.825Z,48.62
2022-08-07T23:52:58.692Z,48.72
2022-08-07T23:54:55.228Z,48.61
2022-08-07T23:57:42.935Z,48.04
